sensor_id;sensor_type;location;lat;lon;timestamp;pressure;altitude;pressure_sealevel;temperature;humidity
39275;BME280;24980;48.874;2.332;2023-02-24T00:01:33;100953.51;;;24.56;39.63
39275;BME280;24980;48.874;2.332;2023-02-24T00:04:08;100959.23;;;24.56;39.66
39275;BME280;24980;48.874;2.332;2023-02-24T00:06:42;100961.59;;;24.57;39.69
39275;BME280;24980;48.874;2.332;2023-02-24T00:09:12;100957.53;;;24.57;39.70
39275;BME280;24980;48.874;2.332;2023-02-24T00:11:36;100948.29;;;24.57;39.71
39275;BME280;24980;48.874;2.332;2023-02-24T00:14:06;100944.97;;;24.58;39.73
39275;BME280;24980;48.874;2.332;2023-02-24T00:16:36;100943.52;;;24.59;39.78
39275;BME280;24980;48.874;2.332;2023-02-24T00:19:13;100939.72;;;24.58;39.83
39275;BME280;24980;48.874;2.332;2023-02-24T00:21:36;100939.88;;;24.58;39.89
39275;BME280;24980;48.874;2.332;2023-02-24T00:24:08;100941.45;;;24.60;39.96
39275;BME280;24980;48.874;2.332;2023-02-24T00:26:38;100936.95;;;24.60;40.03
39275;BME280;24980;48.874;2.332;2023-02-24T00:29:10;100934.22;;;24.61;40.13
39275;BME280;24980;48.874;2.332;2023-02-24T00:31:40;100934.90;;;24.61;40.23
39275;BME280;24980;48.874;2.332;2023-02-24T00:34:08;100936.24;;;24.62;40.36
39275;BME280;24980;48.874;2.332;2023-02-24T00:36:41;100941.45;;;24.63;40.46
39275;BME280;24980;48.874;2.332;2023-02-24T00:39:10;100940.52;;;24.63;40.56
39275;BME280;24980;48.874;2.332;2023-02-24T00:41:43;100936.95;;;24.64;40.66
39275;BME280;24980;48.874;2.332;2023-02-24T00:44:11;100933.80;;;24.65;40.77
39275;BME280;24980;48.874;2.332;2023-02-24T00:46:46;100934.30;;;24.65;40.86
39275;BME280;24980;48.874;2.332;2023-02-24T00:49:13;100927.52;;;24.65;40.94
39275;BME280;24980;48.874;2.332;2023-02-24T00:51:43;100927.73;;;24.66;40.98
39275;BME280;24980;48.874;2.332;2023-02-24T00:54:12;100928.06;;;24.67;41.03
39275;BME280;24980;48.874;2.332;2023-02-24T00:56:44;100931.70;;;24.67;41.07
39275;BME280;24980;48.874;2.332;2023-02-24T00:59:15;100924.42;;;24.67;41.11
39275;BME280;24980;48.874;2.332;2023-02-24T01:01:44;100919.50;;;24.67;41.16
39275;BME280;24980;48.874;2.332;2023-02-24T01:04:14;100921.09;;;24.68;41.21
39275;BME280;24980;48.874;2.332;2023-02-24T01:06:46;100920.58;;;24.69;41.25
39275;BME280;24980;48.874;2.332;2023-02-24T01:09:17;100921.12;;;24.70;41.31
39275;BME280;24980;48.874;2.332;2023-02-24T01:11:47;100919.69;;;24.70;41.37
39275;BME280;24980;48.874;2.332;2023-02-24T01:14:19;100913.50;;;24.70;41.41
39275;BME280;24980;48.874;2.332;2023-02-24T01:16:46;100913.57;;;24.71;41.46
39275;BME280;24980;48.874;2.332;2023-02-24T01:19:17;100908.56;;;24.71;41.47
39275;BME280;24980;48.874;2.332;2023-02-24T01:21:47;100907.88;;;24.72;41.47
39275;BME280;24980;48.874;2.332;2023-02-24T01:24:17;100905.42;;;24.72;41.47
39275;BME280;24980;48.874;2.332;2023-02-24T01:26:47;100910.62;;;24.73;41.46
39275;BME280;24980;48.874;2.332;2023-02-24T01:29:18;100901.30;;;24.73;41.45
39275;BME280;24980;48.874;2.332;2023-02-24T01:31:49;100902.23;;;24.74;41.44
39275;BME280;24980;48.874;2.332;2023-02-24T01:34:19;100903.50;;;24.74;41.43
39275;BME280;24980;48.874;2.332;2023-02-24T01:36:49;100902.14;;;24.74;41.43
39275;BME280;24980;48.874;2.332;2023-02-24T01:39:20;100899.85;;;24.74;41.43
39275;BME280;24980;48.874;2.332;2023-02-24T01:41:50;100898.93;;;24.73;41.42
39275;BME280;24980;48.874;2.332;2023-02-24T01:46:51;100893.64;;;24.75;41.41
39275;BME280;24980;48.874;2.332;2023-02-24T01:49:33;100891.31;;;24.76;41.41
39275;BME280;24980;48.874;2.332;2023-02-24T01:51:59;100890.80;;;24.76;41.41
39275;BME280;24980;48.874;2.332;2023-02-24T01:54:28;100890.20;;;24.76;41.41
39275;BME280;24980;48.874;2.332;2023-02-24T01:56:56;100884.18;;;24.77;41.40
39275;BME280;24980;48.874;2.332;2023-02-24T01:59:28;100880.61;;;24.78;41.42
39275;BME280;24980;48.874;2.332;2023-02-24T02:02:01;100874.75;;;24.78;41.43
39275;BME280;24980;48.874;2.332;2023-02-24T02:04:49;100872.11;;;24.79;41.43
39275;BME280;24980;48.874;2.332;2023-02-24T02:06:58;100865.80;;;24.79;41.42
39275;BME280;24980;48.874;2.332;2023-02-24T02:09:26;100864.09;;;24.80;41.42
39275;BME280;24980;48.874;2.332;2023-02-24T02:11:57;100871.52;;;24.82;41.41
39275;BME280;24980;48.874;2.332;2023-02-24T02:14:28;100865.16;;;24.82;41.40
39275;BME280;24980;48.874;2.332;2023-02-24T02:19:54;100865.75;;;24.83;41.39
39275;BME280;24980;48.874;2.332;2023-02-24T02:24:33;100859.97;;;24.84;41.38
39275;BME280;24980;48.874;2.332;2023-02-24T02:32:26;100845.22;;;24.83;41.43
39275;BME280;24980;48.874;2.332;2023-02-24T02:34:49;100839.95;;;24.84;41.45
39275;BME280;24980;48.874;2.332;2023-02-24T02:37:22;100835.56;;;24.86;41.47
39275;BME280;24980;48.874;2.332;2023-02-24T02:42:07;100832.39;;;24.88;41.54
39275;BME280;24980;48.874;2.332;2023-02-24T02:44:57;100831.42;;;24.88;41.60
39275;BME280;24980;48.874;2.332;2023-02-24T02:49:37;100830.81;;;24.90;41.67
39275;BME280;24980;48.874;2.332;2023-02-24T02:52:09;100825.70;;;24.91;41.68
39275;BME280;24980;48.874;2.332;2023-02-24T02:54:44;100827.19;;;24.92;41.68
39275;BME280;24980;48.874;2.332;2023-02-24T02:57:10;100827.84;;;24.93;41.66
39275;BME280;24980;48.874;2.332;2023-02-24T02:59:41;100827.00;;;24.93;41.66
39275;BME280;24980;48.874;2.332;2023-02-24T03:02:08;100821.23;;;24.93;41.65
39275;BME280;24980;48.874;2.332;2023-02-24T03:04:42;100819.19;;;24.94;41.64
39275;BME280;24980;48.874;2.332;2023-02-24T03:07:12;100819.09;;;24.95;41.64
39275;BME280;24980;48.874;2.332;2023-02-24T03:09:41;100816.99;;;24.93;41.63
39275;BME280;24980;48.874;2.332;2023-02-24T03:12:13;100819.28;;;24.94;41.64
39275;BME280;24980;48.874;2.332;2023-02-24T03:14:52;100817.07;;;24.94;41.63
39275;BME280;24980;48.874;2.332;2023-02-24T03:17:18;100818.16;;;24.94;41.62
39275;BME280;24980;48.874;2.332;2023-02-24T03:19:44;100817.23;;;24.94;41.62
39275;BME280;24980;48.874;2.332;2023-02-24T03:22:28;100824.27;;;24.94;41.62
39275;BME280;24980;48.874;2.332;2023-02-24T03:24:43;100822.14;;;24.95;41.62
39275;BME280;24980;48.874;2.332;2023-02-24T03:27:20;100826.38;;;24.95;41.62
39275;BME280;24980;48.874;2.332;2023-02-24T03:29:52;100823.75;;;24.94;41.62
39275;BME280;24980;48.874;2.332;2023-02-24T03:32:35;100821.85;;;24.95;41.63
39275;BME280;24980;48.874;2.332;2023-02-24T03:34:56;100822.98;;;24.95;41.63
39275;BME280;24980;48.874;2.332;2023-02-24T03:37:16;100823.88;;;24.95;41.63
39275;BME280;24980;48.874;2.332;2023-02-24T03:39:46;100823.70;;;24.95;41.63
39275;BME280;24980;48.874;2.332;2023-02-24T03:42:18;100817.92;;;24.96;41.63
39275;BME280;24980;48.874;2.332;2023-02-24T03:44:47;100813.09;;;24.97;41.63
39275;BME280;24980;48.874;2.332;2023-02-24T03:47:17;100813.69;;;24.96;41.65
39275;BME280;24980;48.874;2.332;2023-02-24T03:49:47;100813.95;;;24.96;41.67
39275;BME280;24980;48.874;2.332;2023-02-24T03:55:15;100808.28;;;24.98;41.73
39275;BME280;24980;48.874;2.332;2023-02-24T03:57:47;100806.41;;;24.99;41.77
39275;BME280;24980;48.874;2.332;2023-02-24T04:00:07;100796.31;;;24.99;41.77
39275;BME280;24980;48.874;2.332;2023-02-24T04:02:22;100783.77;;;24.98;41.77
39275;BME280;24980;48.874;2.332;2023-02-24T04:05:07;100777.16;;;24.99;41.77
39275;BME280;24980;48.874;2.332;2023-02-24T04:07:36;100778.34;;;24.98;41.75
39275;BME280;24980;48.874;2.332;2023-02-24T04:10:09;100777.91;;;25.00;41.76
39275;BME280;24980;48.874;2.332;2023-02-24T04:12:41;100766.12;;;24.99;41.76
39275;BME280;24980;48.874;2.332;2023-02-24T04:17:36;100763.89;;;25.01;41.75
39275;BME280;24980;48.874;2.332;2023-02-24T04:19:56;100758.81;;;25.00;41.75
39275;BME280;24980;48.874;2.332;2023-02-24T04:22:26;100757.22;;;24.99;41.76
39275;BME280;24980;48.874;2.332;2023-02-24T04:24:58;100752.55;;;25.00;41.75
39275;BME280;24980;48.874;2.332;2023-02-24T04:27:25;100746.67;;;25.01;41.75
39275;BME280;24980;48.874;2.332;2023-02-24T04:29:57;100741.84;;;25.01;41.75
39275;BME280;24980;48.874;2.332;2023-02-24T04:32:28;100737.00;;;25.01;41.75
39275;BME280;24980;48.874;2.332;2023-02-24T04:35:07;100734.59;;;25.02;41.74
39275;BME280;24980;48.874;2.332;2023-02-24T04:37:27;100732.72;;;25.02;41.76
39275;BME280;24980;48.874;2.332;2023-02-24T04:39:57;100728.13;;;25.02;41.76
39275;BME280;24980;48.874;2.332;2023-02-24T04:42:27;100728.57;;;25.02;41.77
39275;BME280;24980;48.874;2.332;2023-02-24T04:44:57;100732.55;;;25.02;41.77
39275;BME280;24980;48.874;2.332;2023-02-24T04:47:28;100731.53;;;25.02;41.78
39275;BME280;24980;48.874;2.332;2023-02-24T04:49:58;100729.92;;;25.01;41.81
39275;BME280;24980;48.874;2.332;2023-02-24T04:52:28;100731.78;;;25.02;41.83
39275;BME280;24980;48.874;2.332;2023-02-24T04:54:58;100728.96;;;25.03;41.85
39275;BME280;24980;48.874;2.332;2023-02-24T04:57:28;100728.56;;;25.05;41.89
39275;BME280;24980;48.874;2.332;2023-02-24T04:59:58;100728.64;;;25.05;41.93
39275;BME280;24980;48.874;2.332;2023-02-24T05:02:29;100730.34;;;25.05;41.99
39275;BME280;24980;48.874;2.332;2023-02-24T05:04:59;100734.13;;;25.06;42.01
39275;BME280;24980;48.874;2.332;2023-02-24T05:07:29;100741.42;;;25.07;42.03
39275;BME280;24980;48.874;2.332;2023-02-24T05:09:59;100735.67;;;25.06;42.03
39275;BME280;24980;48.874;2.332;2023-02-24T05:12:30;100738.22;;;25.06;42.04
39275;BME280;24980;48.874;2.332;2023-02-24T05:15:00;100743.71;;;25.06;42.03
39275;BME280;24980;48.874;2.332;2023-02-24T05:17:30;100739.62;;;25.07;42.04
39275;BME280;24980;48.874;2.332;2023-02-24T05:20:00;100734.08;;;25.08;42.04
39275;BME280;24980;48.874;2.332;2023-02-24T05:22:30;100733.56;;;25.08;42.02
39275;BME280;24980;48.874;2.332;2023-02-24T05:25:00;100731.00;;;25.09;42.01
39275;BME280;24980;48.874;2.332;2023-02-24T05:27:30;100729.89;;;25.09;42.03
39275;BME280;24980;48.874;2.332;2023-02-24T05:30:00;100726.77;;;25.09;42.02
39275;BME280;24980;48.874;2.332;2023-02-24T05:32:31;100725.83;;;25.09;42.04
39275;BME280;24980;48.874;2.332;2023-02-24T05:35:02;100726.02;;;25.08;42.06
39275;BME280;24980;48.874;2.332;2023-02-24T05:37:35;100725.59;;;25.08;42.06
39275;BME280;24980;48.874;2.332;2023-02-24T05:40:02;100723.29;;;25.08;42.06
39275;BME280;24980;48.874;2.332;2023-02-24T05:42:33;100725.16;;;25.08;42.06
39275;BME280;24980;48.874;2.332;2023-02-24T05:45:02;100722.52;;;25.09;42.06
39275;BME280;24980;48.874;2.332;2023-02-24T05:47:33;100719.28;;;25.10;42.05
39275;BME280;24980;48.874;2.332;2023-02-24T05:50:03;100720.54;;;25.10;42.07
39275;BME280;24980;48.874;2.332;2023-02-24T05:52:34;100712.99;;;25.10;42.08
39275;BME280;24980;48.874;2.332;2023-02-24T05:55:04;100714.19;;;25.10;42.10
39275;BME280;24980;48.874;2.332;2023-02-24T05:57:37;100712.92;;;25.09;42.12
39275;BME280;24980;48.874;2.332;2023-02-24T06:00:06;100705.55;;;25.10;42.12
39275;BME280;24980;48.874;2.332;2023-02-24T06:02:36;100703.16;;;25.10;42.12
39275;BME280;24980;48.874;2.332;2023-02-24T06:05:07;100703.94;;;25.09;42.10
39275;BME280;24980;48.874;2.332;2023-02-24T06:07:37;100703.88;;;25.08;42.14
39275;BME280;24980;48.874;2.332;2023-02-24T06:10:08;100700.47;;;25.09;42.15
39275;BME280;24980;48.874;2.332;2023-02-24T06:12:37;100700.53;;;25.10;42.13
39275;BME280;24980;48.874;2.332;2023-02-24T06:15:08;100693.84;;;25.10;42.13
39275;BME280;24980;48.874;2.332;2023-02-24T06:17:38;100689.94;;;25.10;42.12
39275;BME280;24980;48.874;2.332;2023-02-24T06:20:09;100685.95;;;25.10;42.12
39275;BME280;24980;48.874;2.332;2023-02-24T06:22:39;100689.17;;;25.13;42.10
39275;BME280;24980;48.874;2.332;2023-02-24T06:25:09;100689.73;;;25.17;42.08
39275;BME280;24980;48.874;2.332;2023-02-24T06:27:39;100686.45;;;25.18;42.09
39275;BME280;24980;48.874;2.332;2023-02-24T06:30:12;100688.06;;;25.18;42.11
39275;BME280;24980;48.874;2.332;2023-02-24T06:32:40;100679.17;;;25.17;42.13
39275;BME280;24980;48.874;2.332;2023-02-24T06:35:10;100680.48;;;25.17;42.15
39275;BME280;24980;48.874;2.332;2023-02-24T06:37:40;100677.05;;;25.17;42.15
39275;BME280;24980;48.874;2.332;2023-02-24T06:40:11;100680.48;;;25.17;42.12
39275;BME280;24980;48.874;2.332;2023-02-24T06:42:45;100685.20;;;25.12;42.07
39275;BME280;24980;48.874;2.332;2023-02-24T06:45:12;100690.56;;;24.97;41.89
39275;BME280;24980;48.874;2.332;2023-02-24T06:47:42;100689.86;;;24.79;41.66
39275;BME280;24980;48.874;2.332;2023-02-24T06:50:12;100693.22;;;24.60;41.47
39275;BME280;24980;48.874;2.332;2023-02-24T06:52:42;100701.84;;;24.46;41.28
39275;BME280;24980;48.874;2.332;2023-02-24T06:55:12;100704.91;;;24.34;41.11
39275;BME280;24980;48.874;2.332;2023-02-24T06:57:50;100706.66;;;24.20;40.97
39275;BME280;24980;48.874;2.332;2023-02-24T07:00:14;100714.48;;;24.10;40.81
39275;BME280;24980;48.874;2.332;2023-02-24T07:02:43;100712.77;;;24.04;40.65
39275;BME280;24980;48.874;2.332;2023-02-24T07:05:15;100716.07;;;23.97;40.52
39275;BME280;24980;48.874;2.332;2023-02-24T07:07:44;100720.12;;;23.90;40.44
39275;BME280;24980;48.874;2.332;2023-02-24T07:10:15;100720.02;;;23.84;40.37
39275;BME280;24980;48.874;2.332;2023-02-24T07:12:45;100723.05;;;23.80;40.28
39275;BME280;24980;48.874;2.332;2023-02-24T07:15:15;100725.66;;;23.73;40.24
39275;BME280;24980;48.874;2.332;2023-02-24T07:17:45;100722.94;;;23.70;40.17
39275;BME280;24980;48.874;2.332;2023-02-24T07:20:16;100728.91;;;23.65;40.11
39275;BME280;24980;48.874;2.332;2023-02-24T07:22:46;100728.22;;;23.61;40.05
39275;BME280;24980;48.874;2.332;2023-02-24T07:25:17;100730.41;;;23.58;39.97
39275;BME280;24980;48.874;2.332;2023-02-24T07:27:47;100726.28;;;23.50;39.90
39275;BME280;24980;48.874;2.332;2023-02-24T07:30:17;100723.40;;;23.37;39.91
39275;BME280;24980;48.874;2.332;2023-02-24T07:32:47;100724.80;;;23.27;39.88
39275;BME280;24980;48.874;2.332;2023-02-24T07:35:17;100719.89;;;23.22;39.81
39275;BME280;24980;48.874;2.332;2023-02-24T07:37:47;100724.34;;;23.19;39.72
39275;BME280;24980;48.874;2.332;2023-02-24T07:40:17;100725.89;;;23.15;39.66
39275;BME280;24980;48.874;2.332;2023-02-24T07:42:47;100722.17;;;23.10;39.62
39275;BME280;24980;48.874;2.332;2023-02-24T07:45:18;100722.47;;;23.08;39.54
39275;BME280;24980;48.874;2.332;2023-02-24T07:47:48;100717.59;;;23.06;39.49
39275;BME280;24980;48.874;2.332;2023-02-24T07:50:18;100716.80;;;23.04;39.42
39275;BME280;24980;48.874;2.332;2023-02-24T07:52:48;100715.44;;;23.00;39.38
39275;BME280;24980;48.874;2.332;2023-02-24T07:55:18;100712.10;;;22.98;39.32
39275;BME280;24980;48.874;2.332;2023-02-24T07:57:49;100710.41;;;22.99;39.23
39275;BME280;24980;48.874;2.332;2023-02-24T08:00:22;100704.73;;;22.95;39.19
39275;BME280;24980;48.874;2.332;2023-02-24T08:02:54;100711.64;;;22.92;39.15
39275;BME280;24980;48.874;2.332;2023-02-24T08:05:21;100711.21;;;22.86;39.14
39275;BME280;24980;48.874;2.332;2023-02-24T08:07:51;100712.95;;;22.84;39.08
39275;BME280;24980;48.874;2.332;2023-02-24T08:10:24;100710.23;;;22.81;39.05
39275;BME280;24980;48.874;2.332;2023-02-24T08:12:54;100705.78;;;22.75;39.07
39275;BME280;24980;48.874;2.332;2023-02-24T08:15:24;100707.17;;;22.68;39.07
39275;BME280;24980;48.874;2.332;2023-02-24T08:17:56;100710.03;;;22.63;39.05
39275;BME280;24980;48.874;2.332;2023-02-24T08:20:23;100706.58;;;22.62;39.00
39275;BME280;24980;48.874;2.332;2023-02-24T08:22:53;100711.73;;;22.62;38.95
39275;BME280;24980;48.874;2.332;2023-02-24T08:25:26;100709.34;;;22.58;38.95
39275;BME280;24980;48.874;2.332;2023-02-24T08:27:54;100704.72;;;22.53;38.93
39275;BME280;24980;48.874;2.332;2023-02-24T08:30:25;100699.89;;;22.49;38.92
39275;BME280;24980;48.874;2.332;2023-02-24T08:32:55;100694.37;;;22.46;38.89
39275;BME280;24980;48.874;2.332;2023-02-24T08:35:28;100691.34;;;22.45;38.85
39275;BME280;24980;48.874;2.332;2023-02-24T08:38:01;100683.05;;;22.46;38.80
39275;BME280;24980;48.874;2.332;2023-02-24T08:40:29;100674.34;;;22.57;38.69
39275;BME280;24980;48.874;2.332;2023-02-24T08:43:03;100675.09;;;22.72;38.57
39275;BME280;24980;48.874;2.332;2023-02-24T08:45:32;100672.16;;;22.88;38.47
39275;BME280;24980;48.874;2.332;2023-02-24T08:48:01;100675.62;;;22.99;38.39
39275;BME280;24980;48.874;2.332;2023-02-24T08:50:28;100674.29;;;23.08;38.33
39275;BME280;24980;48.874;2.332;2023-02-24T08:52:58;100675.38;;;23.16;38.27
39275;BME280;24980;48.874;2.332;2023-02-24T08:55:29;100670.16;;;23.23;38.21
39275;BME280;24980;48.874;2.332;2023-02-24T08:57:59;100671.04;;;23.29;38.16
39275;BME280;24980;48.874;2.332;2023-02-24T09:00:29;100671.71;;;23.34;38.10
39275;BME280;24980;48.874;2.332;2023-02-24T09:03:00;100672.44;;;23.38;38.07
39275;BME280;24980;48.874;2.332;2023-02-24T09:05:30;100674.76;;;23.42;38.03
39275;BME280;24980;48.874;2.332;2023-02-24T09:08:00;100672.06;;;23.46;38.00
39275;BME280;24980;48.874;2.332;2023-02-24T09:10:30;100670.89;;;23.49;37.96
39275;BME280;24980;48.874;2.332;2023-02-24T09:13:04;100679.95;;;23.52;37.94
39275;BME280;24980;48.874;2.332;2023-02-24T09:15:31;100682.18;;;23.54;37.93
39275;BME280;24980;48.874;2.332;2023-02-24T09:18:01;100688.33;;;23.56;37.92
39275;BME280;24980;48.874;2.332;2023-02-24T09:20:31;100687.84;;;23.59;37.89
39275;BME280;24980;48.874;2.332;2023-02-24T09:23:02;100688.37;;;23.61;37.87
39275;BME280;24980;48.874;2.332;2023-02-24T09:25:36;100687.97;;;23.63;37.85
39275;BME280;24980;48.874;2.332;2023-02-24T09:28:13;100687.02;;;23.66;37.83
39275;BME280;24980;48.874;2.332;2023-02-24T09:30:34;100690.33;;;23.68;37.82
39275;BME280;24980;48.874;2.332;2023-02-24T09:33:14;100684.39;;;23.69;37.81
39275;BME280;24980;48.874;2.332;2023-02-24T09:35:34;100689.60;;;23.70;37.80
39275;BME280;24980;48.874;2.332;2023-02-24T09:38:04;100694.75;;;23.71;37.80
39275;BME280;24980;48.874;2.332;2023-02-24T09:40:37;100694.91;;;23.72;37.80
39275;BME280;24980;48.874;2.332;2023-02-24T09:43:11;100692.48;;;23.74;37.79
39275;BME280;24980;48.874;2.332;2023-02-24T09:45:34;100696.61;;;23.75;37.78
39275;BME280;24980;48.874;2.332;2023-02-24T09:48:13;100693.55;;;23.76;37.76
39275;BME280;24980;48.874;2.332;2023-02-24T09:50:37;100691.96;;;23.78;37.74
39275;BME280;24980;48.874;2.332;2023-02-24T09:53:10;100682.94;;;23.80;37.71
39275;BME280;24980;48.874;2.332;2023-02-24T09:55:41;100677.75;;;23.82;37.69
39275;BME280;24980;48.874;2.332;2023-02-24T10:00:40;100672.88;;;23.83;37.66
39275;BME280;24980;48.874;2.332;2023-02-24T10:03:38;100677.76;;;23.85;37.65
39275;BME280;24980;48.874;2.332;2023-02-24T10:05:58;100665.86;;;23.86;37.63
39275;BME280;24980;48.874;2.332;2023-02-24T10:08:14;100667.11;;;23.88;37.60
39275;BME280;24980;48.874;2.332;2023-02-24T10:10:38;100662.44;;;23.88;37.57
39275;BME280;24980;48.874;2.332;2023-02-24T10:13:19;100661.97;;;23.90;37.55
39275;BME280;24980;48.874;2.332;2023-02-24T10:15:40;100657.08;;;23.92;37.53
39275;BME280;24980;48.874;2.332;2023-02-24T10:20:43;100643.26;;;23.97;37.50
39275;BME280;24980;48.874;2.332;2023-02-24T10:23:23;100637.52;;;24.00;37.48
39275;BME280;24980;48.874;2.332;2023-02-24T10:25:50;100636.64;;;24.01;37.48
39275;BME280;24980;48.874;2.332;2023-02-24T10:30:51;100630.77;;;24.05;37.45
39275;BME280;24980;48.874;2.332;2023-02-24T10:33:23;100623.12;;;24.06;37.43
39275;BME280;24980;48.874;2.332;2023-02-24T10:35:43;100617.44;;;24.07;37.42
39275;BME280;24980;48.874;2.332;2023-02-24T10:38:13;100619.80;;;24.08;37.41
39275;BME280;24980;48.874;2.332;2023-02-24T10:40:47;100619.66;;;24.09;37.41
39275;BME280;24980;48.874;2.332;2023-02-24T10:43:20;100618.90;;;24.09;37.39
39275;BME280;24980;48.874;2.332;2023-02-24T10:45:46;100615.69;;;24.09;37.39
39275;BME280;24980;48.874;2.332;2023-02-24T10:48:23;100610.66;;;24.07;37.39
39275;BME280;24980;48.874;2.332;2023-02-24T10:50:47;100610.66;;;24.08;37.38
39275;BME280;24980;48.874;2.332;2023-02-24T10:53:23;100602.62;;;24.07;37.36
39275;BME280;24980;48.874;2.332;2023-02-24T10:55:48;100604.23;;;24.07;37.35
39275;BME280;24980;48.874;2.332;2023-02-24T10:58:31;100602.04;;;24.07;37.34
39275;BME280;24980;48.874;2.332;2023-02-24T11:00:49;100603.55;;;24.07;37.34
39275;BME280;24980;48.874;2.332;2023-02-24T11:03:21;100594.87;;;24.08;37.32
39275;BME280;24980;48.874;2.332;2023-02-24T11:05:50;100593.25;;;24.08;37.32
39275;BME280;24980;48.874;2.332;2023-02-24T11:08:24;100592.06;;;24.09;37.31
39275;BME280;24980;48.874;2.332;2023-02-24T11:10:51;100593.41;;;24.09;37.30
39275;BME280;24980;48.874;2.332;2023-02-24T11:13:21;100584.75;;;24.10;37.29
39275;BME280;24980;48.874;2.332;2023-02-24T11:15:56;100580.13;;;24.13;37.30
39275;BME280;24980;48.874;2.332;2023-02-24T11:18:25;100572.17;;;nan;37.30
39275;BME280;24980;48.874;2.332;2023-02-24T11:20:57;100575.21;;;24.17;37.29
39275;BME280;24980;48.874;2.332;2023-02-24T11:23:27;100578.00;;;24.18;37.29
39275;BME280;24980;48.874;2.332;2023-02-24T11:25:59;100573.14;;;24.18;37.27
39275;BME280;24980;48.874;2.332;2023-02-24T11:28:45;100570.51;;;24.18;37.26
39275;BME280;24980;48.874;2.332;2023-02-24T11:31:11;100560.58;;;24.19;37.24
39275;BME280;24980;48.874;2.332;2023-02-24T11:41:08;100535.50;;;24.23;37.21
39275;BME280;24980;48.874;2.332;2023-02-24T11:43:31;100529.82;;;24.23;37.21
39275;BME280;24980;48.874;2.332;2023-02-24T11:46:16;100530.91;;;24.24;37.21
39275;BME280;24980;48.874;2.332;2023-02-24T11:48:34;100528.39;;;24.23;37.22
39275;BME280;24980;48.874;2.332;2023-02-24T11:51:11;100523.64;;;24.23;37.21
39275;BME280;24980;48.874;2.332;2023-02-24T11:53:45;100521.20;;;24.22;37.22
39275;BME280;24980;48.874;2.332;2023-02-24T11:56:24;100512.41;;;24.21;37.21
39275;BME280;24980;48.874;2.332;2023-02-24T11:58:45;100507.62;;;24.21;37.21
39275;BME280;24980;48.874;2.332;2023-02-24T12:01:15;100498.23;;;24.21;37.20
39275;BME280;24980;48.874;2.332;2023-02-24T12:03:49;100490.80;;;24.20;37.20
39275;BME280;24980;48.874;2.332;2023-02-24T12:06:20;100491.91;;;24.19;37.18
39275;BME280;24980;48.874;2.332;2023-02-24T12:08:37;100490.65;;;24.18;37.17
39275;BME280;24980;48.874;2.332;2023-02-24T12:11:09;100486.49;;;24.16;37.16
39275;BME280;24980;48.874;2.332;2023-02-24T12:13:51;100481.91;;;24.14;37.15
39275;BME280;24980;48.874;2.332;2023-02-24T12:18:39;100469.96;;;24.09;37.13
39275;BME280;24980;48.874;2.332;2023-02-24T12:21:11;100470.23;;;24.08;37.12
39275;BME280;24980;48.874;2.332;2023-02-24T12:23:38;100468.27;;;24.07;37.10
39275;BME280;24980;48.874;2.332;2023-02-24T12:33:46;100461.33;;;24.03;37.04
39275;BME280;24980;48.874;2.332;2023-02-24T12:36:28;100458.98;;;24.02;37.01
39275;BME280;24980;48.874;2.332;2023-02-24T12:39:17;100459.88;;;24.01;37.00
39275;BME280;24980;48.874;2.332;2023-02-24T12:41:27;100452.17;;;24.01;36.99
39275;BME280;24980;48.874;2.332;2023-02-24T12:49:02;100440.35;;;24.00;36.96
39275;BME280;24980;48.874;2.332;2023-02-24T12:53:55;100438.14;;;24.00;36.96
39275;BME280;24980;48.874;2.332;2023-02-24T12:56:25;100432.14;;;24.02;36.96
39275;BME280;24980;48.874;2.332;2023-02-24T12:58:46;100426.19;;;24.04;36.96
39275;BME280;24980;48.874;2.332;2023-02-24T13:01:30;100425.09;;;24.06;36.96
39275;BME280;24980;48.874;2.332;2023-02-24T13:06:45;100413.64;;;24.10;36.96
39275;BME280;24980;48.874;2.332;2023-02-24T13:09:08;100410.62;;;24.13;36.96
39275;BME280;24980;48.874;2.332;2023-02-24T13:14:08;100409.61;;;24.19;36.97
39275;BME280;24980;48.874;2.332;2023-02-24T13:16:31;100404.31;;;24.21;36.97
39275;BME280;24980;48.874;2.332;2023-02-24T13:18:47;100401.95;;;24.23;36.96
39275;BME280;24980;48.874;2.332;2023-02-24T13:21:20;100395.88;;;24.25;36.94
39275;BME280;24980;48.874;2.332;2023-02-24T13:23:57;100397.70;;;24.27;36.94
39275;BME280;24980;48.874;2.332;2023-02-24T13:26:23;100384.16;;;24.28;36.92
39275;BME280;24980;48.874;2.332;2023-02-24T13:29:10;100377.52;;;24.30;36.91
39275;BME280;24980;48.874;2.332;2023-02-24T13:31:21;100374.66;;;24.32;36.90
39275;BME280;24980;48.874;2.332;2023-02-24T13:33:51;100372.19;;;24.35;36.89
39275;BME280;24980;48.874;2.332;2023-02-24T13:36:24;100370.41;;;24.38;36.87
39275;BME280;24980;48.874;2.332;2023-02-24T13:43:54;100363.50;;;24.45;36.80
39275;BME280;24980;48.874;2.332;2023-02-24T13:46:25;100363.84;;;24.47;36.78
39275;BME280;24980;48.874;2.332;2023-02-24T13:48:59;100358.91;;;24.50;36.74
39275;BME280;24980;48.874;2.332;2023-02-24T13:56:40;100352.78;;;24.54;36.66
39275;BME280;24980;48.874;2.332;2023-02-24T14:01:28;100347.77;;;24.55;36.61
39275;BME280;24980;48.874;2.332;2023-02-24T14:04:05;100348.89;;;24.54;36.60
39275;BME280;24980;48.874;2.332;2023-02-24T14:06:28;100343.34;;;24.53;36.59
39275;BME280;24980;48.874;2.332;2023-02-24T14:09:00;100342.85;;;24.52;36.59
39275;BME280;24980;48.874;2.332;2023-02-24T14:11:33;100337.96;;;24.51;36.60
39275;BME280;24980;48.874;2.332;2023-02-24T14:14:00;100338.08;;;24.50;36.60
39275;BME280;24980;48.874;2.332;2023-02-24T14:16:34;100328.22;;;24.49;36.59
39275;BME280;24980;48.874;2.332;2023-02-24T14:19:02;100331.22;;;24.47;36.56